Time;durP1;ratioP1;P1;durP2;ratioP2;P2;SDS_P1;SDS_P2;PMS_P1;PMS_P2;Temp;Humidity;BMP_temperature;BMP_pressure;BME280_temperature;BME280_humidity;BME280_pressure;Samples;Min_cycle;Max_cycle;Signal;HPM_P1;HPM_P2
2023/03/27 00:00:34;;;;;;;;;;;5.10;99.90;;;;;;5065067;28;20351;-63
2023/03/27 00:03:07;;;;;;;;;;;5.10;99.90;;;;;;5066081;28;19920;-63
2023/03/27 00:05:39;;;;;;;;;;;5.10;99.90;;;;;;5061631;28;19920;-64
2023/03/27 00:08:12;;;;;;;;;;;5.10;99.90;;;;;;5068248;28;19925;-64
2023/03/27 00:10:46;;;;;;;;;;;5.10;99.90;;;;;;5052840;28;19920;-64
2023/03/27 00:13:13;;;;;;;;;;;5.10;99.90;;;;;;5071342;28;19920;-64
2023/03/27 00:15:45;;;;;;;;;;;5.10;99.90;;;;;;5067146;28;19978;-64
2023/03/27 00:18:17;;;;;;;;;;;5.10;99.90;;;;;;5055014;28;19920;-64
2023/03/27 00:20:49;;;;;;;;;;;5.00;99.90;;;;;;5069084;28;19931;-64
2023/03/27 00:23:21;;;;;;;;;;;5.10;99.90;;;;;;5066379;28;20388;-63
2023/03/27 00:25:53;;;;;;;;;;;5.00;99.90;;;;;;5067676;28;19931;-64
2023/03/27 00:28:26;;;;;;;;;;;4.90;99.90;;;;;;5066245;28;19928;-63
2023/03/27 00:30:58;;;;;;;;;;;4.90;99.90;;;;;;5052412;28;19924;-63
2023/03/27 00:33:30;;;;;;;;;;;4.90;99.90;;;;;;5067243;28;19924;-63
2023/03/27 00:36:01;;;;;;;;;;;4.90;99.90;;;;;;5064842;28;19921;-64
2023/03/27 00:38:33;;;;;;;;;;;4.80;99.90;;;;;;5054999;28;19960;-64
2023/03/27 00:41:01;;;;;;;;;;;4.80;99.90;;;;;;5067851;28;19927;-64
2023/03/27 00:43:34;;;;;;;;;;;4.80;99.90;;;;;;5057801;28;20422;-63
2023/03/27 00:46:30;;;;;;;;;;;4.70;99.90;;;;;;5061402;28;19925;-64
2023/03/27 00:49:05;;;;;;;;;;;4.70;99.90;;;;;;5061885;28;19924;-64
2023/03/27 00:51:33;;;;;;;;;;;4.70;99.90;;;;;;5067313;28;20342;-64
2023/03/27 00:54:05;;;;;;;;;;;4.70;99.90;;;;;;5051391;28;19999;-64
2023/03/27 00:56:37;;;;;;;;;;;4.60;99.90;;;;;;5050463;28;19924;-64
2023/03/27 00:59:13;;;;;;;;;;;4.60;99.90;;;;;;5053355;28;19994;-63
2023/03/27 01:01:45;;;;;;;;;;;4.60;99.90;;;;;;5061214;28;20763;-64
2023/03/27 01:04:20;;;;;;;;;;;4.60;99.90;;;;;;5068875;28;19925;-64
2023/03/27 01:06:53;;;;;;;;;;;4.60;99.90;;;;;;5053020;28;19927;-63
2023/03/27 01:09:20;;;;;;;;;;;4.60;99.90;;;;;;5061211;28;19963;-64
2023/03/27 01:11:59;;;;;;;;;;;4.60;99.90;;;;;;5063713;28;19973;-64
2023/03/27 01:14:31;;;;;;;;;;;4.60;99.90;;;;;;5037878;28;19924;-64
2023/03/27 01:17:17;;;;;;;;;;;4.60;99.90;;;;;;5049743;28;20407;-64
2023/03/27 01:20:03;;;;;;;;;;;4.60;99.90;;;;;;5051741;28;19920;-64
2023/03/27 01:22:38;;;;;;;;;;;4.60;99.90;;;;;;5051174;28;19924;-64
2023/03/27 01:25:29;;;;;;;;;;;4.60;99.90;;;;;;5066597;28;19929;-64
2023/03/27 01:28:19;;;;;;;;;;;4.60;99.90;;;;;;5046113;28;20293;-64
2023/03/27 01:31:03;;;;;;;;;;;4.70;99.90;;;;;;5062929;28;19921;-64
2023/03/27 01:33:55;;;;;;;;;;;4.60;99.90;;;;;;5048957;28;19928;-64
2023/03/27 01:36:50;;;;;;;;;;;4.70;99.90;;;;;;5064767;28;20007;-64
2023/03/27 01:39:24;;;;;;;;;;;4.60;99.90;;;;;;5051354;28;20490;-64
2023/03/27 01:42:15;;;;;;;;;;;4.60;99.90;;;;;;5067094;28;19924;-64
2023/03/27 01:44:50;;;;;;;;;;;4.60;99.90;;;;;;5067833;28;19924;-64
2023/03/27 01:47:29;;;;;;;;;;;4.70;99.90;;;;;;5048934;28;19928;-64
2023/03/27 01:50:01;;;;;;;;;;;4.70;99.90;;;;;;5049229;28;20015;-64
2023/03/27 01:52:30;;;;;;;;;;;4.70;99.90;;;;;;5062616;28;19924;-64
2023/03/27 01:55:04;;;;;;;;;;;4.60;99.90;;;;;;5064176;28;20000;-64
2023/03/27 01:57:40;;;;;;;;;;;4.70;99.90;;;;;;5057625;28;19920;-64
2023/03/27 02:00:16;;;;;;;;;;;4.70;99.90;;;;;;5051281;28;19920;-64
2023/03/27 02:02:54;;;;;;;;;;;4.70;99.90;;;;;;5064944;28;20483;-64
2023/03/27 02:05:26;;;;;;;;;;;4.70;99.90;;;;;;5051866;28;20015;-64
2023/03/27 02:07:56;;;;;;;;;;;4.70;99.90;;;;;;5063041;28;19924;-64
2023/03/27 02:10:31;;;;;;;;;;;4.70;99.90;;;;;;5049003;28;19982;-64
2023/03/27 02:13:17;;;;;;;;;;;4.70;99.90;;;;;;5050602;28;19979;-64
2023/03/27 02:15:45;;;;;;;;;;;4.60;99.90;;;;;;5072262;28;19920;-64
2023/03/27 02:18:17;;;;;;;;;;;4.60;99.90;;;;;;5034499;28;20402;-64
2023/03/27 02:20:49;;;;;;;;;;;4.60;99.90;;;;;;5056365;28;19924;-64
2023/03/27 02:23:21;;;;;;;;;;;4.60;99.90;;;;;;5065351;28;19927;-64
2023/03/27 02:25:53;;;;;;;;;;;4.60;99.90;;;;;;5049648;28;20400;-64
2023/03/27 02:28:35;;;;;;;;;;;4.60;99.90;;;;;;5050966;28;19924;-64
2023/03/27 02:31:17;;;;;;;;;;;4.60;99.90;;;;;;5050224;28;19921;-64
2023/03/27 02:34:10;;;;;;;;;;;4.60;99.90;;;;;;5063626;28;19932;-64
2023/03/27 02:37:00;;;;;;;;;;;4.70;99.90;;;;;;5067992;28;20330;-64
2023/03/27 02:40:13;;;;;;;;;;;4.60;99.90;;;;;;5023637;28;19978;-64
2023/03/27 02:42:54;;;;;;;;;;;4.60;99.90;;;;;;5055404;28;19924;-64
2023/03/27 02:45:41;;;;;;;;;;;4.60;99.90;;;;;;5063788;28;19925;-64
2023/03/27 02:48:12;;;;;;;;;;;4.60;99.90;;;;;;5062249;28;19956;-64
2023/03/27 02:51:04;;;;;;;;;;;4.60;99.90;;;;;;5050994;28;19928;-64
2023/03/27 02:53:34;;;;;;;;;;;4.60;99.90;;;;;;5044073;28;19931;-64
2023/03/27 02:56:07;;;;;;;;;;;4.60;99.90;;;;;;5052250;28;19931;-64
2023/03/27 02:58:50;;;;;;;;;;;4.70;99.90;;;;;;5064441;28;19920;-63
2023/03/27 03:01:33;;;;;;;;;;;4.70;99.90;;;;;;5049701;28;19983;-64
2023/03/27 03:04:21;;;;;;;;;;;4.60;99.90;;;;;;5050381;28;19952;-64
2023/03/27 03:07:05;;;;;;;;;;;4.70;99.90;;;;;;5064379;28;19939;-64
2023/03/27 03:09:32;;;;;;;;;;;4.60;99.90;;;;;;5069847;28;19924;-63
2023/03/27 03:12:06;;;;;;;;;;;4.60;99.90;;;;;;5053272;28;19924;-64
2023/03/27 03:14:42;;;;;;;;;;;4.60;99.90;;;;;;5062384;28;19927;-64
2023/03/27 03:17:14;;;;;;;;;;;4.60;99.90;;;;;;5072655;28;19920;-63
2023/03/27 03:19:41;;;;;;;;;;;4.70;99.90;;;;;;5071715;28;20423;-63
2023/03/27 03:22:13;;;;;;;;;;;4.70;99.90;;;;;;5055214;28;19931;-63
2023/03/27 03:24:43;;;;;;;;;;;4.70;99.90;;;;;;5063880;28;19951;-63
2023/03/27 03:27:19;;;;;;;;;;;4.70;99.90;;;;;;5070336;28;20369;-63
2023/03/27 03:30:06;;;;;;;;;;;4.70;99.90;;;;;;5071514;28;20003;-63
2023/03/27 03:32:39;;;;;;;;;;;4.70;99.90;;;;;;5070389;28;20396;-64
2023/03/27 03:35:08;;;;;;;;;;;4.70;99.90;;;;;;5072200;28;19970;-63
2023/03/27 03:37:40;;;;;;;;;;;4.70;99.90;;;;;;5072178;28;19947;-63
2023/03/27 03:40:12;;;;;;;;;;;4.70;99.90;;;;;;5072259;28;19920;-64
2023/03/27 03:42:49;;;;;;;;;;;4.70;99.90;;;;;;5073186;28;19928;-64
2023/03/27 03:45:19;;;;;;;;;;;4.70;99.90;;;;;;5072362;28;19928;-64
2023/03/27 03:47:50;;;;;;;;;;;4.70;99.90;;;;;;5073355;28;19920;-63
2023/03/27 03:50:23;;;;;;;;;;;4.70;99.90;;;;;;5068783;28;19925;-64
2023/03/27 03:52:55;;;;;;;;;;;4.60;99.90;;;;;;5066307;28;19925;-64
2023/03/27 03:55:26;;;;;;;;;;;4.60;99.90;;;;;;5053878;28;19924;-63
2023/03/27 03:57:54;;;;;;;;;;;4.60;99.90;;;;;;5071822;28;20019;-63
2023/03/27 04:00:27;;;;;;;;;;;4.50;99.90;;;;;;5054712;28;19920;-63
2023/03/27 04:02:59;;;;;;;;;;;4.50;99.90;;;;;;5068385;28;19920;-63
2023/03/27 04:05:33;;;;;;;;;;;4.40;99.90;;;;;;5054820;28;19928;-64
2023/03/27 04:08:08;;;;;;;;;;;4.40;99.90;;;;;;5056144;28;19960;-63
2023/03/27 04:10:54;;;;;;;;;;;4.40;99.90;;;;;;5071631;28;20110;-69
2023/03/27 04:14:05;;;;;;;;;;;4.40;99.90;;;;;;5047920;28;20401;-63
2023/03/27 04:16:41;;;;;;;;;;;4.30;99.90;;;;;;5050062;28;19921;-63
2023/03/27 04:19:23;;;;;;;;;;;4.30;99.90;;;;;;5052104;28;20392;-64
2023/03/27 04:22:03;;;;;;;;;;;4.30;99.90;;;;;;5070884;28;19928;-63
2023/03/27 04:24:36;;;;;;;;;;;4.20;99.90;;;;;;5064054;28;19941;-63
2023/03/27 04:27:08;;;;;;;;;;;4.20;99.90;;;;;;5058499;28;20006;-63
2023/03/27 04:29:46;;;;;;;;;;;4.10;99.90;;;;;;5066274;28;20493;-63
2023/03/27 04:32:38;;;;;;;;;;;4.20;99.90;;;;;;5025762;28;19920;-63
2023/03/27 04:35:37;;;;;;;;;;;4.10;99.90;;;;;;5052734;28;19994;-64
2023/03/27 04:38:13;;;;;;;;;;;4.10;99.90;;;;;;5049380;28;19955;-64
2023/03/27 04:40:51;;;;;;;;;;;4.00;99.90;;;;;;5050110;28;20355;-63
2023/03/27 04:43:25;;;;;;;;;;;3.90;99.90;;;;;;5061017;28;19929;-64
2023/03/27 04:45:53;;;;;;;;;;;3.80;99.90;;;;;;5046599;28;19926;-63
2023/03/27 04:48:26;;;;;;;;;;;3.70;99.90;;;;;;5066133;28;20015;-63
2023/03/27 04:50:54;;;;;;;;;;;3.60;99.90;;;;;;5046096;28;20740;-63
2023/03/27 04:53:35;;;;;;;;;;;3.50;99.90;;;;;;5044532;28;20022;-63
2023/03/27 04:56:01;;;;;;;;;;;3.50;99.90;;;;;;5043133;28;19928;-63
2023/03/27 04:58:36;;;;;;;;;;;3.40;99.90;;;;;;5069978;28;19964;-64
2023/03/27 05:01:11;;;;;;;;;;;3.40;99.90;;;;;;5041421;28;19975;-63
2023/03/27 05:04:01;;;;;;;;;;;3.30;99.90;;;;;;5069777;28;19931;-63
2023/03/27 05:06:46;;;;;;;;;;;3.30;99.90;;;;;;5061064;28;19931;-63
2023/03/27 05:09:19;;;;;;;;;;;3.20;99.90;;;;;;5053519;28;19970;-63
2023/03/27 05:11:51;;;;;;;;;;;3.10;99.90;;;;;;5047616;28;19928;-63
2023/03/27 05:14:23;;;;;;;;;;;3.10;99.90;;;;;;5051951;28;19921;-63
2023/03/27 05:16:51;;;;;;;;;;;3.10;99.90;;;;;;5049136;28;19920;-63
2023/03/27 05:19:24;;;;;;;;;;;3.00;99.90;;;;;;5049111;28;19921;-63
2023/03/27 05:21:58;;;;;;;;;;;3.00;99.90;;;;;;5065932;28;19920;-63
2023/03/27 05:24:30;;;;;;;;;;;2.90;99.90;;;;;;5061426;28;19932;-63
2023/03/27 05:27:02;;;;;;;;;;;2.90;99.90;;;;;;5051869;28;19998;-63
2023/03/27 05:29:35;;;;;;;;;;;2.90;99.90;;;;;;5048231;28;19997;-63
2023/03/27 05:32:06;;;;;;;;;;;2.90;99.90;;;;;;5048876;28;19924;-63
2023/03/27 05:34:44;;;;;;;;;;;2.80;99.90;;;;;;5046875;28;20016;-63
2023/03/27 05:37:16;;;;;;;;;;;2.80;99.90;;;;;;5045099;28;19928;-63
2023/03/27 05:40:06;;;;;;;;;;;2.70;99.90;;;;;;5048205;28;19946;-63
2023/03/27 05:42:40;;;;;;;;;;;2.70;99.90;;;;;;5033454;28;19921;-63
2023/03/27 05:45:12;;;;;;;;;;;2.70;99.90;;;;;;5051655;28;19936;-63
2023/03/27 05:47:50;;;;;;;;;;;2.60;99.90;;;;;;5050405;28;19964;-63
2023/03/27 05:50:25;;;;;;;;;;;2.60;99.90;;;;;;5054310;28;19920;-63
2023/03/27 05:53:03;;;;;;;;;;;2.50;99.90;;;;;;5050838;28;19924;-63
2023/03/27 05:55:37;;;;;;;;;;;2.50;99.90;;;;;;5046580;28;20015;-63
2023/03/27 05:58:10;;;;;;;;;;;2.40;99.90;;;;;;5047651;28;19924;-63
2023/03/27 06:00:43;;;;;;;;;;;2.40;99.90;;;;;;5064840;28;20442;-63
2023/03/27 06:03:19;;;;;;;;;;;2.30;99.90;;;;;;5048610;28;19924;-63
2023/03/27 06:06:05;;;;;;;;;;;2.40;99.90;;;;;;5048715;28;19921;-63
2023/03/27 06:08:40;;;;;;;;;;;2.40;99.90;;;;;;5050597;28;19924;-63
2023/03/27 06:11:14;;;;;;;;;;;2.30;99.90;;;;;;5049665;28;19999;-63
2023/03/27 06:13:45;;;;;;;;;;;2.20;99.90;;;;;;5048830;28;20027;-63
2023/03/27 06:16:22;;;;;;;;;;;2.20;99.90;;;;;;5050085;28;19920;-63
2023/03/27 06:19:10;;;;;;;;;;;2.10;99.90;;;;;;5063526;28;20401;-63
2023/03/27 06:21:45;;;;;;;;;;;2.00;99.90;;;;;;5044832;28;19932;-63
2023/03/27 06:24:17;;;;;;;;;;;2.00;99.90;;;;;;5051197;28;19921;-63
2023/03/27 06:26:51;;;;;;;;;;;1.90;99.90;;;;;;5049939;28;19924;-63
2023/03/27 06:29:19;;;;;;;;;;;1.90;99.90;;;;;;5062844;28;19975;-63
2023/03/27 06:31:48;;;;;;;;;;;1.90;99.90;;;;;;5054154;28;19921;-63
2023/03/27 06:34:27;;;;;;;;;;;1.90;99.90;;;;;;5061944;28;19920;-63
2023/03/27 06:37:13;;;;;;;;;;;1.90;99.90;;;;;;5063523;28;19931;-63
2023/03/27 06:39:41;;;;;;;;;;;2.00;99.90;;;;;;5042276;28;19935;-64
2023/03/27 06:42:13;;;;;;;;;;;2.00;99.90;;;;;;5036047;28;19932;-64
2023/03/27 06:44:51;;;;;;;;;;;2.10;99.90;;;;;;5055129;28;19928;-64
2023/03/27 06:47:49;;;;;;;;;;;2.10;99.90;;;;;;5072467;28;20484;-64
2023/03/27 06:50:26;;;;;;;;;;;2.20;99.90;;;;;;5053493;28;19944;-64
2023/03/27 06:52:58;;;;;;;;;;;2.20;99.90;;;;;;5040186;28;19932;-66
2023/03/27 06:55:39;;;;;;;;;;;2.20;99.90;;;;;;5073514;28;20370;-67
2023/03/27 06:58:17;;;;;;;;;;;2.20;99.90;;;;;;5055445;28;20373;-64
2023/03/27 07:00:50;;;;;;;;;;;2.20;99.90;;;;;;5055182;28;19931;-63
2023/03/27 07:03:21;;;;;;;;;;;2.20;99.90;;;;;;5071673;28;19947;-63
2023/03/27 07:05:59;;;;;;;;;;;2.10;99.90;;;;;;5074127;28;19920;-63
2023/03/27 07:08:40;;;;;;;;;;;2.10;99.90;;;;;;5055333;28;19920;-63
2023/03/27 07:11:12;;;;;;;;;;;2.10;99.90;;;;;;5069608;28;19924;-64
2023/03/27 07:13:44;;;;;;;;;;;2.10;99.90;;;;;;5050129;28;19920;-64
2023/03/27 07:16:23;;;;;;;;;;;2.10;99.90;;;;;;5055919;28;20285;-64
2023/03/27 07:18:56;;;;;;;;;;;2.10;99.90;;;;;;5066205;28;20367;-64
2023/03/27 07:21:23;;;;;;;;;;;2.10;99.90;;;;;;5064286;28;19924;-63
2023/03/27 07:23:50;;;;;;;;;;;2.10;99.90;;;;;;5072314;28;19920;-64
2023/03/27 07:26:35;;;;;;;;;;;2.10;99.90;;;;;;5053790;28;19928;-63
2023/03/27 07:29:12;;;;;;;;;;;2.10;99.90;;;;;;5045703;28;19920;-64
2023/03/27 07:31:49;;;;;;;;;;;2.10;99.90;;;;;;5054012;28;19924;-63
2023/03/27 07:34:28;;;;;;;;;;;2.10;99.90;;;;;;5037120;28;19920;-64
2023/03/27 07:37:15;;;;;;;;;;;2.10;99.90;;;;;;5069049;28;19947;-64
2023/03/27 07:40:13;;;;;;;;;;;2.00;99.90;;;;;;5062671;28;19932;-64
2023/03/27 07:42:52;;;;;;;;;;;2.00;99.90;;;;;;5049967;28;19924;-64
2023/03/27 07:45:20;;;;;;;;;;;2.00;99.90;;;;;;5051911;28;19920;-63
2023/03/27 07:48:03;;;;;;;;;;;1.90;99.90;;;;;;5053605;28;19978;-63
2023/03/27 07:50:36;;;;;;;;;;;1.90;99.90;;;;;;5054671;28;19924;-63
2023/03/27 07:53:05;;;;;;;;;;;1.90;99.90;;;;;;5052203;28;19921;-64
2023/03/27 07:55:41;;;;;;;;;;;1.90;99.90;;;;;;5041032;28;19948;-63
2023/03/27 07:58:14;;;;;;;;;;;1.90;99.90;;;;;;5063897;28;20019;-63
2023/03/27 08:00:51;;;;;;;;;;;1.90;99.90;;;;;;5055753;28;20019;-64
2023/03/27 08:03:29;;;;;;;;;;;1.80;99.90;;;;;;5056789;28;19920;-63
2023/03/27 08:05:57;;;;;;;;;;;1.90;99.90;;;;;;5060724;28;19930;-64
2023/03/27 08:08:30;;;;;;;;;;;1.80;99.90;;;;;;5054829;28;19942;-63
2023/03/27 08:11:02;;;;;;;;;;;1.80;99.90;;;;;;5062396;28;19951;-63
2023/03/27 08:13:38;;;;;;;;;;;1.80;99.90;;;;;;5071318;28;20316;-63
2023/03/27 08:16:07;;;;;;;;;;;1.80;99.90;;;;;;5051631;28;19974;-64
2023/03/27 08:18:41;;;;;;;;;;;1.80;99.90;;;;;;5071389;28;19920;-64
2023/03/27 08:21:09;;;;;;;;;;;1.90;99.90;;;;;;5054787;28;19928;-64
2023/03/27 08:23:41;;;;;;;;;;;1.90;99.90;;;;;;5040275;28;19925;-63
2023/03/27 08:26:33;;;;;;;;;;;1.90;99.90;;;;;;5061941;28;20678;-64
2023/03/27 08:29:08;;;;;;;;;;;2.00;99.90;;;;;;5048421;28;19931;-63
2023/03/27 08:31:36;;;;;;;;;;;2.00;99.90;;;;;;5051399;28;19924;-63
2023/03/27 08:34:07;;;;;;;;;;;2.00;99.90;;;;;;5065669;28;19948;-64
2023/03/27 08:36:44;;;;;;;;;;;2.00;99.90;;;;;;5039178;28;19970;-64
2023/03/27 08:39:16;;;;;;;;;;;2.00;99.90;;;;;;5059253;28;19924;-64
2023/03/27 08:41:54;;;;;;;;;;;2.10;99.90;;;;;;5067648;28;19920;-64
2023/03/27 08:44:32;;;;;;;;;;;2.20;99.90;;;;;;5062684;28;20015;-64
2023/03/27 08:47:16;;;;;;;;;;;2.30;99.90;;;;;;5069638;28;19928;-64
2023/03/27 08:49:57;;;;;;;;;;;2.40;99.90;;;;;;5053234;28;19924;-64
2023/03/27 08:52:34;;;;;;;;;;;2.40;99.90;;;;;;5074560;28;19925;-64
2023/03/27 08:55:21;;;;;;;;;;;2.40;99.90;;;;;;5053400;28;19921;-64
2023/03/27 08:58:01;;;;;;;;;;;2.50;99.90;;;;;;5049621;28;20002;-64
2023/03/27 09:00:37;;;;;;;;;;;2.40;99.90;;;;;;5068511;28;19967;-64
2023/03/27 09:03:34;;;;;;;;;;;2.40;99.90;;;;;;5053033;28;20315;-64
2023/03/27 09:06:11;;;;;;;;;;;2.40;99.90;;;;;;5070405;28;19974;-64
2023/03/27 09:08:51;;;;;;;;;;;2.40;99.90;;;;;;5068900;28;19928;-63
2023/03/27 09:11:22;;;;;;;;;;;2.50;99.90;;;;;;5065063;28;19931;-63
2023/03/27 09:13:55;;;;;;;;;;;2.50;99.90;;;;;;5070179;28;19921;-64
2023/03/27 09:16:29;;;;;;;;;;;2.40;99.90;;;;;;5069286;28;19970;-64
2023/03/27 09:19:01;;;;;;;;;;;2.50;99.90;;;;;;5070325;28;20335;-64
2023/03/27 09:21:33;;;;;;;;;;;2.60;99.90;;;;;;5070337;28;19920;-64
2023/03/27 09:24:13;;;;;;;;;;;2.50;99.90;;;;;;5056907;28;19920;-64
2023/03/27 09:27:22;;;;;;;;;;;2.60;99.90;;;;;;5068847;28;20098;-64
2023/03/27 09:30:18;;;;;;;;;;;2.50;99.90;;;;;;5050981;28;19924;-63
2023/03/27 09:33:04;;;;;;;;;;;2.50;99.90;;;;;;5054118;28;19920;-64
2023/03/27 09:35:37;;;;;;;;;;;2.50;99.90;;;;;;5070090;28;20019;-64
2023/03/27 09:38:25;;;;;;;;;;;2.50;99.90;;;;;;5052530;28;19946;-64
2023/03/27 09:40:55;;;;;;;;;;;2.50;99.90;;;;;;5051528;28;19928;-64
2023/03/27 09:43:26;;;;;;;;;;;2.60;99.90;;;;;;5053368;28;19928;-64
2023/03/27 09:46:00;;;;;;;;;;;2.50;99.90;;;;;;5051318;28;19974;-63
2023/03/27 09:48:33;;;;;;;;;;;2.60;99.90;;;;;;5053077;28;19974;-63
2023/03/27 09:51:31;;;;;;;;;;;2.60;99.90;;;;;;5069919;28;19920;-64
2023/03/27 09:54:05;;;;;;;;;;;2.60;99.90;;;;;;5053054;28;19940;-63
2023/03/27 09:56:39;;;;;;;;;;;2.60;99.90;;;;;;5068224;28;20630;-63
2023/03/27 09:59:19;;;;;;;;;;;2.60;99.90;;;;;;5058095;28;19966;-63
2023/03/27 10:01:54;;;;;;;;;;;2.70;99.90;;;;;;5049403;28;19927;-63
2023/03/27 10:04:28;;;;;;;;;;;2.70;99.90;;;;;;5046447;28;19924;-64
2023/03/27 10:07:04;;;;;;;;;;;2.80;99.90;;;;;;5066469;28;20058;-63
2023/03/27 10:10:10;;;;;;;;;;;2.80;99.90;;;;;;5070300;28;19979;-64
2023/03/27 10:13:04;;;;;;;;;;;2.90;99.90;;;;;;5068120;28;19924;-63
2023/03/27 10:15:45;;;;;;;;;;;3.00;99.90;;;;;;5069351;28;19928;-63
2023/03/27 10:18:28;;;;;;;;;;;3.10;99.90;;;;;;5050791;28;20407;-64
2023/03/27 10:21:29;;;;;;;;;;;3.20;99.90;;;;;;5069670;28;20359;-63
2023/03/27 10:24:17;;;;;;;;;;;3.30;99.90;;;;;;5071543;28;20019;-63
2023/03/27 10:27:08;;;;;;;;;;;3.40;99.90;;;;;;5055386;28;19928;-63
2023/03/27 10:29:59;;;;;;;;;;;3.40;99.90;;;;;;5066309;28;19936;-63
2023/03/27 10:32:41;;;;;;;;;;;3.50;99.90;;;;;;5070903;28;20020;-63
2023/03/27 10:35:36;;;;;;;;;;;3.50;99.90;;;;;;5070001;28;19920;-63
2023/03/27 10:38:21;;;;;;;;;;;3.60;99.90;;;;;;5061385;28;20007;-63
2023/03/27 10:41:06;;;;;;;;;;;3.60;99.90;;;;;;5054321;28;19920;-64
2023/03/27 10:43:44;;;;;;;;;;;3.80;99.90;;;;;;5053824;28;19963;-64
2023/03/27 10:46:21;;;;;;;;;;;4.00;99.90;;;;;;5050961;28;19920;-64
2023/03/27 10:49:00;;;;;;;;;;;4.20;99.90;;;;;;5036880;28;19927;-64
2023/03/27 10:51:47;;;;;;;;;;;4.10;99.90;;;;;;5053565;28;20566;-64
2023/03/27 10:54:43;;;;;;;;;;;4.10;99.90;;;;;;5053489;28;19974;-63
2023/03/27 10:57:27;;;;;;;;;;;3.90;99.90;;;;;;5055342;28;19932;-63
2023/03/27 11:00:06;;;;;;;;;;;4.00;99.90;;;;;;5053282;28;19924;-63
2023/03/27 11:02:48;;;;;;;;;;;4.10;99.90;;;;;;5075301;28;19947;-64
2023/03/27 11:05:20;;;;;;;;;;;4.10;99.90;;;;;;5057712;28;19920;-64
2023/03/27 11:08:02;;;;;;;;;;;4.10;99.90;;;;;;5035858;28;19951;-63
2023/03/27 11:10:35;;;;;;;;;;;4.00;99.90;;;;;;5068551;28;19982;-63
2023/03/27 11:13:22;;;;;;;;;;;3.90;99.90;;;;;;5066094;28;19924;-63
2023/03/27 11:16:02;;;;;;;;;;;4.00;99.90;;;;;;5054892;28;19963;-63
2023/03/27 11:19:00;;;;;;;;;;;4.30;99.90;;;;;;5072512;28;19971;-64
2023/03/27 11:21:48;;;;;;;;;;;4.70;99.90;;;;;;5053083;28;19960;-63
2023/03/27 11:24:28;;;;;;;;;;;4.80;99.90;;;;;;5054125;28;20404;-63
2023/03/27 11:27:11;;;;;;;;;;;4.90;99.90;;;;;;5059820;28;20398;-63
2023/03/27 11:29:55;;;;;;;;;;;4.80;99.90;;;;;;5070448;28;19928;-63
2023/03/27 11:32:34;;;;;;;;;;;4.80;99.90;;;;;;5048669;28;19924;-63
2023/03/27 11:35:10;;;;;;;;;;;4.90;99.90;;;;;;5039574;28;20454;-63
2023/03/27 11:37:52;;;;;;;;;;;4.90;99.90;;;;;;5051984;28;19921;-63
2023/03/27 11:40:28;;;;;;;;;;;5.00;99.90;;;;;;5048188;28;19928;-63
2023/03/27 11:43:01;;;;;;;;;;;5.00;99.90;;;;;;5069816;28;19974;-63
2023/03/27 11:45:38;;;;;;;;;;;5.10;99.90;;;;;;5047615;28;19920;-63
2023/03/27 11:48:33;;;;;;;;;;;5.00;99.90;;;;;;5069481;28;19928;-63
2023/03/27 11:51:19;;;;;;;;;;;4.80;99.90;;;;;;5049484;28;20055;-63
2023/03/27 11:54:10;;;;;;;;;;;4.70;99.90;;;;;;5051920;28;19986;-64
2023/03/27 11:56:54;;;;;;;;;;;4.80;99.90;;;;;;5050488;28;19947;-63
2023/03/27 11:59:48;;;;;;;;;;;4.90;99.90;;;;;;5065161;28;20005;-64
2023/03/27 12:02:36;;;;;;;;;;;5.00;99.90;;;;;;5070518;28;20304;-63
2023/03/27 12:05:32;;;;;;;;;;;5.00;99.90;;;;;;5062884;28;20292;-64
2023/03/27 12:08:23;;;;;;;;;;;4.90;99.90;;;;;;5057429;28;19928;-63
2023/03/27 12:10:54;;;;;;;;;;;4.70;99.90;;;;;;5053401;28;20014;-63
2023/03/27 12:13:59;;;;;;;;;;;4.80;99.90;;;;;;5055967;28;20368;-63
2023/03/27 12:16:35;;;;;;;;;;;4.80;99.90;;;;;;5038956;28;19924;-63
2023/03/27 12:19:12;;;;;;;;;;;4.80;99.90;;;;;;5066850;28;20020;-63
2023/03/27 12:22:03;;;;;;;;;;;4.60;99.90;;;;;;5043633;28;19924;-63
2023/03/27 12:24:37;;;;;;;;;;;4.40;99.90;;;;;;5052389;28;19944;-63
2023/03/27 12:27:36;;;;;;;;;;;4.20;99.90;;;;;;5033468;28;19932;-63
2023/03/27 12:30:40;;;;;;;;;;;4.00;99.90;;;;;;5060530;28;19924;-63
2023/03/27 12:33:12;;;;;;;;;;;4.00;99.90;;;;;;5051506;28;19921;-63
2023/03/27 12:35:47;;;;;;;;;;;4.10;99.90;;;;;;5068152;28;20670;-63
2023/03/27 12:38:27;;;;;;;;;;;4.20;99.90;;;;;;5050021;28;19925;-63
2023/03/27 12:41:02;;;;;;;;;;;4.30;99.90;;;;;;5066274;28;19924;-63
2023/03/27 12:44:05;;;;;;;;;;;4.40;99.90;;;;;;5049412;28;19925;-63
2023/03/27 12:46:41;;;;;;;;;;;4.50;99.90;;;;;;5049370;28;19946;-63
2023/03/27 12:49:13;;;;;;;;;;;4.60;99.90;;;;;;5059740;28;19927;-63
2023/03/27 12:51:50;;;;;;;;;;;4.70;99.90;;;;;;5069761;28;19924;-63
2023/03/27 12:55:01;;;;;;;;;;;4.90;99.90;;;;;;5058969;28;20439;-63
2023/03/27 12:57:52;;;;;;;;;;;5.10;99.90;;;;;;5065188;28;20319;-63
2023/03/27 13:00:50;;;;;;;;;;;5.20;99.90;;;;;;5062014;28;19932;-63
2023/03/27 13:03:46;;;;;;;;;;;5.20;99.90;;;;;;5046766;28;19924;-63
2023/03/27 13:06:36;;;;;;;;;;;5.10;99.90;;;;;;5030901;28;19928;-63
2023/03/27 13:09:13;;;;;;;;;;;5.30;99.90;;;;;;5053051;28;19978;-63
2023/03/27 13:12:06;;;;;;;;;;;5.40;99.90;;;;;;5052692;28;19920;-63
2023/03/27 13:15:12;;;;;;;;;;;5.40;99.90;;;;;;5052117;28;19947;-63
2023/03/27 13:17:59;;;;;;;;;;;5.40;99.90;;;;;;5008494;28;19977;-63
2023/03/27 13:20:36;;;;;;;;;;;5.40;99.90;;;;;;5038884;28;19927;-64
2023/03/27 13:23:08;;;;;;;;;;;5.30;99.90;;;;;;5065759;28;20405;-63
2023/03/27 13:25:44;;;;;;;;;;;5.20;99.90;;;;;;5051945;28;19920;-64
2023/03/27 13:28:22;;;;;;;;;;;5.00;99.90;;;;;;5051610;28;19927;-63
2023/03/27 13:30:57;;;;;;;;;;;4.90;99.90;;;;;;5050403;28;19924;-63
2023/03/27 13:34:10;;;;;;;;;;;4.80;99.90;;;;;;5036442;28;19971;-63
2023/03/27 13:36:47;;;;;;;;;;;4.80;99.90;;;;;;5064656;28;20415;-63
2023/03/27 13:39:22;;;;;;;;;;;4.80;99.90;;;;;;5064711;28;19924;-63
2023/03/27 13:42:04;;;;;;;;;;;4.80;99.90;;;;;;5050320;28;19979;-63
2023/03/27 13:45:00;;;;;;;;;;;4.80;99.90;;;;;;5044796;28;19932;-63
2023/03/27 13:47:38;;;;;;;;;;;4.90;99.90;;;;;;5045308;28;20018;-63
2023/03/27 13:50:11;;;;;;;;;;;4.90;99.90;;;;;;5044265;28;19929;-63
2023/03/27 13:52:49;;;;;;;;;;;4.80;99.90;;;;;;5048375;28;19929;-63
2023/03/27 13:55:50;;;;;;;;;;;4.70;99.90;;;;;;5060747;28;20051;-63
2023/03/27 13:58:54;;;;;;;;;;;4.50;99.90;;;;;;5050834;28;19925;-63
2023/03/27 14:01:32;;;;;;;;;;;4.70;99.90;;;;;;5059013;28;20008;-63
2023/03/27 14:04:24;;;;;;;;;;;5.10;99.90;;;;;;5063996;28;19928;-63
2023/03/27 14:07:14;;;;;;;;;;;5.30;99.90;;;;;;5065869;28;19939;-63
2023/03/27 14:10:22;;;;;;;;;;;5.50;99.90;;;;;;5043985;28;19931;-63
2023/03/27 14:13:01;;;;;;;;;;;5.60;99.90;;;;;;5032655;28;20694;-63
2023/03/27 14:15:46;;;;;;;;;;;5.80;99.90;;;;;;5049438;28;19959;-63
2023/03/27 14:18:56;;;;;;;;;;;5.60;99.90;;;;;;5047032;28;19927;-65
2023/03/27 14:21:29;;;;;;;;;;;5.40;99.90;;;;;;5044279;28;19921;-63
2023/03/27 14:24:34;;;;;;;;;;;5.30;99.90;;;;;;5034396;28;19975;-65
2023/03/27 14:27:20;;;;;;;;;;;5.20;99.90;;;;;;5033385;28;19920;-63
2023/03/27 14:29:48;;;;;;;;;;;5.10;99.90;;;;;;5046976;28;20411;-64
2023/03/27 14:32:20;;;;;;;;;;;5.10;99.90;;;;;;5051042;28;19927;-63
2023/03/27 14:35:01;;;;;;;;;;;5.20;99.90;;;;;;5062877;28;19931;-63
2023/03/27 14:37:43;;;;;;;;;;;5.10;99.90;;;;;;5061929;28;19928;-63
2023/03/27 14:40:35;;;;;;;;;;;5.00;99.90;;;;;;5055733;28;20011;-63
2023/03/27 14:43:10;;;;;;;;;;;4.90;99.90;;;;;;5046764;28;19924;-63
2023/03/27 14:45:43;;;;;;;;;;;4.70;99.90;;;;;;5061833;28;19920;-63
2023/03/27 14:48:16;;;;;;;;;;;4.80;99.90;;;;;;5036461;28;20016;-63
2023/03/27 14:50:52;;;;;;;;;;;5.10;99.90;;;;;;5046878;28;20340;-63
2023/03/27 14:53:25;;;;;;;;;;;5.70;99.90;;;;;;5060370;28;20115;-63
2023/03/27 14:56:46;;;;;;;;;;;6.00;99.90;;;;;;5045576;28;20401;-63
2023/03/27 14:59:28;;;;;;;;;;;5.90;99.90;;;;;;4961517;28;19933;-63
2023/03/27 15:02:04;;;;;;;;;;;5.70;99.90;;;;;;5040564;28;20415;-63
2023/03/27 15:04:32;;;;;;;;;;;5.60;99.90;;;;;;5052201;28;19924;-63
2023/03/27 15:07:12;;;;;;;;;;;5.60;99.90;;;;;;5047692;28;19920;-63
2023/03/27 15:10:01;;;;;;;;;;;5.60;99.90;;;;;;5055343;28;20008;-63
2023/03/27 15:12:52;;;;;;;;;;;5.60;99.90;;;;;;5055709;28;20013;-63
2023/03/27 15:15:41;;;;;;;;;;;5.60;99.90;;;;;;5052785;28;19920;-63
2023/03/27 15:18:21;;;;;;;;;;;5.50;99.90;;;;;;5046817;28;19925;-63
2023/03/27 15:20:55;;;;;;;;;;;5.50;99.90;;;;;;5044635;28;19924;-63
2023/03/27 15:23:29;;;;;;;;;;;5.40;99.90;;;;;;5047842;28;19928;-63
2023/03/27 15:26:06;;;;;;;;;;;5.20;99.90;;;;;;5053178;28;20408;-63
2023/03/27 15:28:45;;;;;;;;;;;4.70;99.90;;;;;;5066629;28;19924;-63
2023/03/27 15:31:17;;;;;;;;;;;4.30;99.90;;;;;;5053697;28;20300;-63
2023/03/27 15:33:56;;;;;;;;;;;4.00;99.90;;;;;;5069114;28;20144;-63
2023/03/27 15:36:31;;;;;;;;;;;3.80;99.90;;;;;;5053019;28;19925;-63
2023/03/27 15:39:05;;;;;;;;;;;3.80;99.90;;;;;;5056657;28;19966;-63
2023/03/27 15:41:40;;;;;;;;;;;3.80;99.90;;;;;;5055342;28;20384;-63